Forseti — V2PV4 — position and weather

sailwx.info

Track history (hours):
 
Tides and Currents Weather Stations Pressure Air Temp Water Temp Dewpoint Dewpoint Depression Visibility Wind Speed Wind Dir Waves Ship Positions

Forseti

Last reported at 2015-May-24 20:33 UTC. Time now 2015-May-24 21:27 UTC.
Position N 54°32' E 011°20'.

Length 85 m; draft 5.5 m.

Type: Cargo ship. MMSI: 304010297.

Date/timePositionNaut miles runAvg speedWind from/ knotsBaromVisibWave heightAir tempDewpointWater temp
2015-May-24 20:33N 54°32' E 011°20'9 8.9
2015-May-24 19:33N 54°34' E 011°05'9 9.4
2015-May-24 18:33N 54°33' E 010°49'9 9.5
2015-May-24 17:33N 54°32' E 010°32'9 9.3
2015-May-24 16:33N 54°28' E 010°18'8 8.3
2015-May-24 15:33N 54°22' E 010°09'1 0.9
2015-May-24 14:33N 54°22' E 010°07'8 7.8
2015-May-24 13:33N 54°21' E 009°54'7 7.1
2015-May-24 12:33N 54°18' E 009°43'6 6.0
2015-May-24 11:33N 54°14' E 009°36'9 8.0
2015-May-24 10:27N 54°09' E 009°23'14 6.7
2015-May-24 08:22N 53°57' E 009°14'4 3.9
2015-May-24 07:18N 53°53' E 009°09'5 6.5
2015-May-24 06:33N 53°51' E 009°01'9 9.3
2015-May-24 05:33N 53°51' E 008°46'10 9.6
2015-May-24 04:33N 53°58' E 008°34'9 9.5
2015-May-24 03:33N 53°59' E 008°18'10 9.7
2015-May-24 02:33N 53°58' E 008°02'1010.3
2015-May-24 01:33N 53°56' E 007°45'1110.7
2015-May-24 00:33N 53°53' E 007°27'1110.6
2015-May-23 23:31N 53°51' E 007°09'2010.1
2015-May-23 21:33N 53°46' E 006°36'10 9.3
2015-May-23 20:28N 53°43' E 006°20'8 8.7
2015-May-23 19:33N 53°42' E 006°07'8 8.4
2015-May-23 18:33N 53°39' E 005°53'8 8.2
2015-May-23 17:33N 53°37' E 005°40'8 8.0
2015-May-23 16:33N 53°34' E 005°28'8 7.9
2015-May-23 15:33N 53°31' E 005°15'8 8.0
2015-May-23 14:33N 53°28' E 005°03'8 8.3
2015-May-23 13:33N 53°25' E 004°50'8 8.2
2015-May-23 12:32N 53°19' E 004°40'21 9.1
2015-May-23 10:13N 53°01' E 004°22'6 9.6
2015-May-23 09:33N 52°55' E 004°17'10 9.6
2015-May-23 08:33N 52°47' E 004°09'10 9.9
2015-May-23 07:33N 52°39' E 003°58'85 9.4
2015-May-22 22:33N 51°35' E 002°30'8 8.3
2015-May-22 21:33N 51°27' E 002°23'8 8.3
2015-May-22 20:32N 51°19' E 002°19'9 9.0
2015-May-22 19:32N 51°12' E 002°12'9 9.5
2015-May-22 18:34N 51°03' E 002°05'9 9.1
2015-May-22 17:33N 51°04' E 002°20'1 1.3
2015-May-22 16:32N 51°03' E 002°18'1 0.9
2015-May-22 15:33N 51°03' E 002°17'0 0.0
2015-May-22 14:29N 51°03' E 002°17'0 0.0
2015-May-22 13:33N 51°03' E 002°17'0 0.0
2015-May-22 12:33N 51°03' E 002°17'0 0.0
2015-May-22 11:32N 51°03' E 002°17'0 0.0
2015-May-22 10:33N 51°03' E 002°17'0 0.0
2015-May-22 09:33N 51°03' E 002°17'0 0.0
2015-May-22 08:33N 51°03' E 002°17'0 0.0
2015-May-22 07:32N 51°03' E 002°17'0 0.0
2015-May-22 06:33N 51°03' E 002°17'0 0.0
2015-May-22 05:33N 51°03' E 002°17'0 0.0
2015-May-22 04:33N 51°03' E 002°17'0 0.0
2015-May-22 03:31N 51°03' E 002°17'0 0.0
2015-May-22 02:23N 51°03' E 002°17'0 0.0
2015-May-22 01:31N 51°03' E 002°17'0 0.1
2015-May-22 00:33N 51°03' E 002°17'3 2.9
2015-May-21 23:33N 51°03' E 002°21'8 7.9
2015-May-21 22:29N 51°03' E 002°08'7 7.8
2015-May-21 21:33N 51°02' E 001°56'9 8.7
2015-May-21 20:33N 51°08' E 001°46'9 9.0
2015-May-21 19:33N 51°17' E 001°48'9 9.2
2015-May-21 18:34N 51°26' E 001°51'8 8.2
2015-May-21 17:33N 51°34' E 001°48'8 7.7
2015-May-21 16:33N 51°42' E 001°45'8 7.7
2015-May-21 15:33N 51°49' E 001°43'9 9.2
2015-May-21 14:33N 51°49' E 001°28'10 9.6
2015-May-21 13:33N 51°43' E 001°15'9 8.5
2015-May-21 12:33N 51°40' E 001°03'8 7.9
2015-May-21 11:33N 51°37' E 000°51'2 2.0
2015-May-21 10:31N 51°37' E 000°48'0 0.0
2015-May-21 09:31N 51°37' E 000°48'0 0.0
2015-May-21 08:31N 51°37' E 000°48'0 0.0
2015-May-21 07:31N 51°37' E 000°48'0 0.0
2015-May-21 06:31N 51°37' E 000°48'0 0.0
2015-May-21 05:31N 51°37' E 000°48'0 0.0
2015-May-21 04:31N 51°37' E 000°48'0 0.0
2015-May-21 03:31N 51°37' E 000°48'0 0.0
2015-May-21 02:31N 51°37' E 000°48'0 0.0
2015-May-21 01:31N 51°37' E 000°48'0 0.0
2015-May-21 00:31N 51°37' E 000°48'0 0.0
2015-May-20 23:31N 51°37' E 000°48'0 0.0
2015-May-20 22:31N 51°37' E 000°48'0 0.0
2015-May-20 21:31N 51°37' E 000°48'0 0.0
2015-May-20 20:31N 51°37' E 000°48'0 0.0
2015-May-20 19:31N 51°37' E 000°48'0 0.0
2015-May-20 18:31N 51°37' E 000°48'0 0.0
2015-May-20 17:31N 51°37' E 000°48'0 0.0
2015-May-20 16:31N 51°37' E 000°48'0 0.0
2015-May-20 15:31N 51°37' E 000°48'0 0.0
2015-May-20 14:31N 51°37' E 000°48'0 0.0
2015-May-20 13:31N 51°37' E 000°48'0 0.0
2015-May-20 12:31N 51°37' E 000°48'0 0.0
2015-May-20 11:31N 51°37' E 000°48'0 0.0
2015-May-20 10:31N 51°37' E 000°48'0 0.0
2015-May-20 09:31N 51°37' E 000°48'0 0.0
2015-May-20 08:31N 51°37' E 000°48'0 0.0
2015-May-20 07:31N 51°37' E 000°48'0 0.0
2015-May-20 06:31N 51°37' E 000°48'0 0.0
2015-May-20 05:31N 51°37' E 000°48'0 0.0
2015-May-20 04:31N 51°37' E 000°48'0 0.0
2015-May-20 03:31N 51°37' E 000°48'0 0.0
2015-May-20 02:34N 51°37' E 000°48'0 0.0
2015-May-20 01:33N 51°37' E 000°48'0 0.0
2015-May-20 00:33N 51°37' E 000°48'0 0.0
2015-May-19 23:33N 51°37' E 000°48'0 0.0
2015-May-19 22:33N 51°37' E 000°48'0 0.0
2015-May-19 21:33N 51°37' E 000°48'0 0.0
2015-May-19 20:33N 51°37' E 000°48'0 0.0
2015-May-19 19:33N 51°37' E 000°48'0 0.0
2015-May-19 18:33N 51°37' E 000°48'0 0.0
2015-May-19 17:33N 51°37' E 000°48'0 0.0
2015-May-19 16:33N 51°37' E 000°48'0 0.0
2015-May-19 15:33N 51°37' E 000°48'0 0.0
2015-May-19 14:33N 51°37' E 000°48'0 0.0
2015-May-19 13:33N 51°37' E 000°48'0 0.0
2015-May-19 12:33N 51°37' E 000°48'0 0.0
2015-May-19 11:33N 51°37' E 000°48'2 2.0
2015-May-19 10:33N 51°37' E 000°51'1010.3
2015-May-19 09:33N 51°41' E 001°06'1111.3
2015-May-19 08:33N 51°46' E 001°23'8 8.3
2015-May-19 07:33N 51°50' E 001°34'9 8.9
2015-May-19 06:33N 51°56' E 001°45'8 8.0
2015-May-19 05:33N 52°02' E 001°54'7 7.2
2015-May-19 04:33N 52°07' E 002°03'132 6.9
2015-May-18 09:32N 53°31' E 004°50'9 8.8
2015-May-18 08:33N 53°34' E 005°03'8 8.0
2015-May-18 07:33N 53°36' E 005°16'7 7.4
2015-May-18 06:33N 53°39' E 005°28'7 7.4
2015-May-18 05:33N 53°41' E 005°40'8 8.0
2015-May-18 04:33N 53°44' E 005°52'9 8.9
2015-May-18 03:33N 53°47' E 006°06'10 9.6
2015-May-18 02:30N 53°51' E 006°22'30 9.0
2015-May-17 23:12N 53°58' E 007°12'5 7.7
2015-May-17 22:33N 53°59' E 007°20'7 7.0
2015-May-17 21:33N 54°00' E 007°31'7 6.6
2015-May-17 20:33N 54°02' E 007°42'6 6.0
2015-May-17 19:33N 54°01' E 007°52'6 6.4
2015-May-17 18:33N 54°01' E 008°03'7 7.4
2015-May-17 17:33N 54°01' E 008°16'1010.1
2015-May-17 16:33N 53°58' E 008°33'1111.0
2015-May-17 15:33N 53°51' E 008°46'1110.9
2015-May-17 14:33N 53°52' E 009°04'3 3.1
2015-May-17 13:33N 53°54' E 009°09'7 6.9
2015-May-17 12:33N 53°59' E 009°17'5 5.0
2015-May-17 11:33N 54°04' E 009°19'8 7.8
2015-May-17 10:30N 54°11' E 009°27'8 8.2
2015-May-17 09:33N 54°16' E 009°37'6 6.0
2015-May-17 08:33N 54°20' E 009°44'5 5.4
2015-May-17 07:33N 54°21' E 009°53'8 7.7
2015-May-17 06:33N 54°22' E 010°06'2 2.4
2015-May-17 05:33N 54°22' E 010°10'8 8.0
2015-May-17 04:33N 54°29' E 010°17'9 9.3
2015-May-17 03:33N 54°33' E 010°32'19 9.2
2015-May-17 01:33N 54°36' E 011°03'9 8.7
2015-May-17 00:33N 54°34' E 011°18'9 8.8
2015-May-16 23:33N 54°31' E 011°31'9 8.9
2015-May-16 22:33N 54°27' E 011°46'9 8.6
2015-May-16 21:33N 54°26' E 012°00'84 9.1
2015-May-16 12:19N 55°07' E 014°07'910.0
2015-May-16 11:28N 55°14' E 014°18'10 9.9
2015-May-16 10:25N 55°21' E 014°29'8 9.7
2015-May-16 09:33N 55°27' E 014°41'10 9.7
2015-May-16 08:33N 55°32' E 014°55'11 9.8
2015-May-16 07:26N 55°38' E 015°12'910.0
2015-May-16 06:31N 55°43' E 015°25'1210.1
2015-May-16 05:21N 55°49' E 015°43'810.1
2015-May-16 04:33N 55°53' E 015°56'  
Track history (hours):
 
Tides and Currents Weather Stations Pressure Air Temp Water Temp Dewpoint Dewpoint Depression Visibility Wind Speed Wind Dir Waves Ship Positions

Forseti

Last reported at 2015-May-24 20:33 UTC. Time now 2015-May-24 21:27 UTC.
Position N 54°32' E 011°20'.

Length 85 m; draft 5.5 m.

Type: Cargo ship. MMSI: 304010297.

Date/timePositionNaut miles runAvg speedWind from/ knotsBaromVisibWave heightAir tempDewpointWater temp
2015-May-24 20:33N 54°32' E 011°20'9 8.9
2015-May-24 19:33N 54°34' E 011°05'9 9.4
2015-May-24 18:33N 54°33' E 010°49'9 9.5
2015-May-24 17:33N 54°32' E 010°32'9 9.3
2015-May-24 16:33N 54°28' E 010°18'8 8.3
2015-May-24 15:33N 54°22' E 010°09'1 0.9
2015-May-24 14:33N 54°22' E 010°07'8 7.8
2015-May-24 13:33N 54°21' E 009°54'7 7.1
2015-May-24 12:33N 54°18' E 009°43'6 6.0
2015-May-24 11:33N 54°14' E 009°36'9 8.0
2015-May-24 10:27N 54°09' E 009°23'14 6.7
2015-May-24 08:22N 53°57' E 009°14'4 3.9
2015-May-24 07:18N 53°53' E 009°09'5 6.5
2015-May-24 06:33N 53°51' E 009°01'9 9.3
2015-May-24 05:33N 53°51' E 008°46'10 9.6
2015-May-24 04:33N 53°58' E 008°34'9 9.5
2015-May-24 03:33N 53°59' E 008°18'10 9.7
2015-May-24 02:33N 53°58' E 008°02'1010.3
2015-May-24 01:33N 53°56' E 007°45'1110.7
2015-May-24 00:33N 53°53' E 007°27'1110.6
2015-May-23 23:31N 53°51' E 007°09'2010.1
2015-May-23 21:33N 53°46' E 006°36'10 9.3
2015-May-23 20:28N 53°43' E 006°20'8 8.7
2015-May-23 19:33N 53°42' E 006°07'8 8.4
2015-May-23 18:33N 53°39' E 005°53'8 8.2
2015-May-23 17:33N 53°37' E 005°40'8 8.0
2015-May-23 16:33N 53°34' E 005°28'8 7.9
2015-May-23 15:33N 53°31' E 005°15'8 8.0
2015-May-23 14:33N 53°28' E 005°03'8 8.3
2015-May-23 13:33N 53°25' E 004°50'8 8.2
2015-May-23 12:32N 53°19' E 004°40'21 9.1
2015-May-23 10:13N 53°01' E 004°22'6 9.6
2015-May-23 09:33N 52°55' E 004°17'10 9.6
2015-May-23 08:33N 52°47' E 004°09'10 9.9
2015-May-23 07:33N 52°39' E 003°58'85 9.4
2015-May-22 22:33N 51°35' E 002°30'8 8.3
2015-May-22 21:33N 51°27' E 002°23'8 8.3
2015-May-22 20:32N 51°19' E 002°19'9 9.0
2015-May-22 19:32N 51°12' E 002°12'9 9.5
2015-May-22 18:34N 51°03' E 002°05'9 9.1
2015-May-22 17:33N 51°04' E 002°20'1 1.3
2015-May-22 16:32N 51°03' E 002°18'1 0.9
2015-May-22 15:33N 51°03' E 002°17'0 0.0
2015-May-22 14:29N 51°03' E 002°17'0 0.0
2015-May-22 13:33N 51°03' E 002°17'0 0.0
2015-May-22 12:33N 51°03' E 002°17'0 0.0
2015-May-22 11:32N 51°03' E 002°17'0 0.0
2015-May-22 10:33N 51°03' E 002°17'0 0.0
2015-May-22 09:33N 51°03' E 002°17'0 0.0
2015-May-22 08:33N 51°03' E 002°17'0 0.0
2015-May-22 07:32N 51°03' E 002°17'0 0.0
2015-May-22 06:33N 51°03' E 002°17'0 0.0
2015-May-22 05:33N 51°03' E 002°17'0 0.0
2015-May-22 04:33N 51°03' E 002°17'0 0.0
2015-May-22 03:31N 51°03' E 002°17'0 0.0
2015-May-22 02:23N 51°03' E 002°17'0 0.0
2015-May-22 01:31N 51°03' E 002°17'0 0.1
2015-May-22 00:33N 51°03' E 002°17'3 2.9
2015-May-21 23:33N 51°03' E 002°21'8 7.9
2015-May-21 22:29N 51°03' E 002°08'7 7.8
2015-May-21 21:33N 51°02' E 001°56'9 8.7
2015-May-21 20:33N 51°08' E 001°46'9 9.0
2015-May-21 19:33N 51°17' E 001°48'9 9.2
2015-May-21 18:34N 51°26' E 001°51'8 8.2
2015-May-21 17:33N 51°34' E 001°48'8 7.7
2015-May-21 16:33N 51°42' E 001°45'8 7.7
2015-May-21 15:33N 51°49' E 001°43'9 9.2
2015-May-21 14:33N 51°49' E 001°28'10 9.6
2015-May-21 13:33N 51°43' E 001°15'9 8.5
2015-May-21 12:33N 51°40' E 001°03'8 7.9
2015-May-21 11:33N 51°37' E 000°51'2 2.0
2015-May-21 10:31N 51°37' E 000°48'0 0.0
2015-May-21 09:31N 51°37' E 000°48'0 0.0
2015-May-21 08:31N 51°37' E 000°48'0 0.0
2015-May-21 07:31N 51°37' E 000°48'0 0.0
2015-May-21 06:31N 51°37' E 000°48'0 0.0
2015-May-21 05:31N 51°37' E 000°48'0 0.0
2015-May-21 04:31N 51°37' E 000°48'0 0.0
2015-May-21 03:31N 51°37' E 000°48'0 0.0
2015-May-21 02:31N 51°37' E 000°48'0 0.0
2015-May-21 01:31N 51°37' E 000°48'0 0.0
2015-May-21 00:31N 51°37' E 000°48'0 0.0
2015-May-20 23:31N 51°37' E 000°48'0 0.0
2015-May-20 22:31N 51°37' E 000°48'0 0.0
2015-May-20 21:31N 51°37' E 000°48'0 0.0
2015-May-20 20:31N 51°37' E 000°48'0 0.0
2015-May-20 19:31N 51°37' E 000°48'0 0.0
2015-May-20 18:31N 51°37' E 000°48'0 0.0
2015-May-20 17:31N 51°37' E 000°48'0 0.0
2015-May-20 16:31N 51°37' E 000°48'0 0.0
2015-May-20 15:31N 51°37' E 000°48'0 0.0
2015-May-20 14:31N 51°37' E 000°48'0 0.0
2015-May-20 13:31N 51°37' E 000°48'0 0.0
2015-May-20 12:31N 51°37' E 000°48'0 0.0
2015-May-20 11:31N 51°37' E 000°48'0 0.0
2015-May-20 10:31N 51°37' E 000°48'0 0.0
2015-May-20 09:31N 51°37' E 000°48'0 0.0
2015-May-20 08:31N 51°37' E 000°48'0 0.0
2015-May-20 07:31N 51°37' E 000°48'0 0.0
2015-May-20 06:31N 51°37' E 000°48'0 0.0
2015-May-20 05:31N 51°37' E 000°48'0 0.0
2015-May-20 04:31N 51°37' E 000°48'0 0.0
2015-May-20 03:31N 51°37' E 000°48'0 0.0
2015-May-20 02:34N 51°37' E 000°48'0 0.0
2015-May-20 01:33N 51°37' E 000°48'0 0.0
2015-May-20 00:33N 51°37' E 000°48'0 0.0
2015-May-19 23:33N 51°37' E 000°48'0 0.0
2015-May-19 22:33N 51°37' E 000°48'0 0.0
2015-May-19 21:33N 51°37' E 000°48'0 0.0
2015-May-19 20:33N 51°37' E 000°48'0 0.0
2015-May-19 19:33N 51°37' E 000°48'0 0.0
2015-May-19 18:33N 51°37' E 000°48'0 0.0
2015-May-19 17:33N 51°37' E 000°48'0 0.0
2015-May-19 16:33N 51°37' E 000°48'0 0.0
2015-May-19 15:33N 51°37' E 000°48'0 0.0
2015-May-19 14:33N 51°37' E 000°48'0 0.0
2015-May-19 13:33N 51°37' E 000°48'0 0.0
2015-May-19 12:33N 51°37' E 000°48'0 0.0
2015-May-19 11:33N 51°37' E 000°48'2 2.0
2015-May-19 10:33N 51°37' E 000°51'1010.3
2015-May-19 09:33N 51°41' E 001°06'1111.3
2015-May-19 08:33N 51°46' E 001°23'8 8.3
2015-May-19 07:33N 51°50' E 001°34'9 8.9
2015-May-19 06:33N 51°56' E 001°45'8 8.0
2015-May-19 05:33N 52°02' E 001°54'7 7.2
2015-May-19 04:33N 52°07' E 002°03'132 6.9
2015-May-18 09:32N 53°31' E 004°50'9 8.8
2015-May-18 08:33N 53°34' E 005°03'8 8.0
2015-May-18 07:33N 53°36' E 005°16'7 7.4
2015-May-18 06:33N 53°39' E 005°28'7 7.4
2015-May-18 05:33N 53°41' E 005°40'8 8.0
2015-May-18 04:33N 53°44' E 005°52'9 8.9
2015-May-18 03:33N 53°47' E 006°06'10 9.6
2015-May-18 02:30N 53°51' E 006°22'30 9.0
2015-May-17 23:12N 53°58' E 007°12'5 7.7
2015-May-17 22:33N 53°59' E 007°20'7 7.0
2015-May-17 21:33N 54°00' E 007°31'7 6.6
2015-May-17 20:33N 54°02' E 007°42'6 6.0
2015-May-17 19:33N 54°01' E 007°52'6 6.4
2015-May-17 18:33N 54°01' E 008°03'7 7.4
2015-May-17 17:33N 54°01' E 008°16'1010.1
2015-May-17 16:33N 53°58' E 008°33'1111.0
2015-May-17 15:33N 53°51' E 008°46'1110.9
2015-May-17 14:33N 53°52' E 009°04'3 3.1
2015-May-17 13:33N 53°54' E 009°09'7 6.9
2015-May-17 12:33N 53°59' E 009°17'5 5.0
2015-May-17 11:33N 54°04' E 009°19'8 7.8
2015-May-17 10:30N 54°11' E 009°27'8 8.2
2015-May-17 09:33N 54°16' E 009°37'6 6.0
2015-May-17 08:33N 54°20' E 009°44'5 5.4
2015-May-17 07:33N 54°21' E 009°53'8 7.7
2015-May-17 06:33N 54°22' E 010°06'2 2.4
2015-May-17 05:33N 54°22' E 010°10'8 8.0
2015-May-17 04:33N 54°29' E 010°17'9 9.3
2015-May-17 03:33N 54°33' E 010°32'19 9.2
2015-May-17 01:33N 54°36' E 011°03'9 8.7
2015-May-17 00:33N 54°34' E 011°18'9 8.8
2015-May-16 23:33N 54°31' E 011°31'9 8.9
2015-May-16 22:33N 54°27' E 011°46'9 8.6
2015-May-16 21:33N 54°26' E 012°00'84 9.1
2015-May-16 12:19N 55°07' E 014°07'910.0
2015-May-16 11:28N 55°14' E 014°18'10 9.9
2015-May-16 10:25N 55°21' E 014°29'8 9.7
2015-May-16 09:33N 55°27' E 014°41'10 9.7
2015-May-16 08:33N 55°32' E 014°55'11 9.8
2015-May-16 07:26N 55°38' E 015°12'910.0
2015-May-16 06:31N 55°43' E 015°25'1210.1
2015-May-16 05:21N 55°49' E 015°43'810.1
2015-May-16 04:33N 55°53' E 015°56'  

Dump ship's entire track history